sensor_id;sensor_type;location;lat;lon;timestamp;temperature;humidity
8332;DHT22;4203;48.144;14.118;2023-11-19T13:16:54;13.40;99.90
8332;DHT22;4203;48.144;14.118;2023-11-19T13:19:21;14.70;99.90
8332;DHT22;4203;48.144;14.118;2023-11-19T13:21:49;14.40;99.90
8332;DHT22;4203;48.144;14.118;2023-11-19T13:24:17;13.60;99.90
8332;DHT22;4203;48.144;14.118;2023-11-19T13:26:44;13.10;99.90
8332;DHT22;4203;48.144;14.118;2023-11-19T13:29:11;14.00;99.90
8332;DHT22;4203;48.144;14.118;2023-11-19T13:31:39;15.50;99.90
8332;DHT22;4203;48.144;14.118;2023-11-19T13:34:08;17.10;99.90
8332;DHT22;4203;48.144;14.118;2023-11-19T13:36:35;17.70;99.90
8332;DHT22;4203;48.144;14.118;2023-11-19T13:39:02;16.70;99.90
8332;DHT22;4203;48.144;14.118;2023-11-19T13:41:29;15.10;99.90
8332;DHT22;4203;48.144;14.118;2023-11-19T13:43:57;13.70;99.90
8332;DHT22;4203;48.144;14.118;2023-11-19T13:52:25;11.20;99.90
8332;DHT22;4203;48.144;14.118;2023-11-19T13:55:15;10.30;99.90
8332;DHT22;4203;48.144;14.118;2023-11-19T13:58:14;10.90;99.90
8332;DHT22;4203;48.144;14.118;2023-11-19T15:11:54;7.40;99.90
8332;DHT22;4203;48.144;14.118;2023-11-19T15:14:37;7.10;99.90
8332;DHT22;4203;48.144;14.118;2023-11-19T15:20:13;6.90;99.90
8332;DHT22;4203;48.144;14.118;2023-11-19T15:22:51;6.70;99.90
8332;DHT22;4203;48.144;14.118;2023-11-19T15:25:36;6.60;99.90
8332;DHT22;4203;48.144;14.118;2023-11-19T15:28:32;6.50;99.90
8332;DHT22;4203;48.144;14.118;2023-11-19T15:31:20;6.40;99.90
8332;DHT22;4203;48.144;14.118;2023-11-19T15:33:58;6.30;99.90
8332;DHT22;4203;48.144;14.118;2023-11-19T15:36:58;6.70;99.90
8332;DHT22;4203;48.144;14.118;2023-11-19T15:39:33;6.20;99.90
8332;DHT22;4203;48.144;14.118;2023-11-19T15:42:06;6.20;99.90
8332;DHT22;4203;48.144;14.118;2023-11-19T15:44:52;6.30;99.90
8332;DHT22;4203;48.144;14.118;2023-11-19T15:47:27;6.20;99.90
8332;DHT22;4203;48.144;14.118;2023-11-19T15:50:04;6.30;99.90
8332;DHT22;4203;48.144;14.118;2023-11-19T16:18:48;8.60;99.90
8332;DHT22;4203;48.144;14.118;2023-11-19T16:21:28;10.00;99.90
8332;DHT22;4203;48.144;14.118;2023-11-19T16:23:57;9.50;99.90
8332;DHT22;4203;48.144;14.118;2023-11-19T16:26:33;9.60;99.90
8332;DHT22;4203;48.144;14.118;2023-11-19T16:29:10;9.60;99.90
8332;DHT22;4203;48.144;14.118;2023-11-19T16:31:56;9.20;99.90
8332;DHT22;4203;48.144;14.118;2023-11-19T16:38:10;8.80;99.90
8332;DHT22;4203;48.144;14.118;2023-11-19T16:41:07;8.80;99.90
8332;DHT22;4203;48.144;14.118;2023-11-19T16:43:50;9.10;99.90
8332;DHT22;4203;48.144;14.118;2023-11-19T16:47:03;8.90;99.90
8332;DHT22;4203;48.144;14.118;2023-11-19T16:53:21;8.00;99.90
8332;DHT22;4203;48.144;14.118;2023-11-19T16:56:14;7.50;99.90
8332;DHT22;4203;48.144;14.118;2023-11-19T16:59:01;7.40;99.90
8332;DHT22;4203;48.144;14.118;2023-11-19T17:02:20;7.30;99.90
8332;DHT22;4203;48.144;14.118;2023-11-19T17:05:30;7.20;99.90
8332;DHT22;4203;48.144;14.118;2023-11-19T17:12:07;6.70;99.90
8332;DHT22;4203;48.144;14.118;2023-11-19T17:14:43;7.00;99.90
8332;DHT22;4203;48.144;14.118;2023-11-19T18:37:35;10.50;99.90
8332;DHT22;4203;48.144;14.118;2023-11-19T18:51:16;9.90;99.90
